Time,TemperatureF,DewpointF,PressureIn,WindDirection,WindDirectionDegrees,WindSpeedMPH,WindSpeedGustMPH,Humidity,HourlyPrecipIn,Conditions,Clouds,dailyrainin,SoftwareType,DateUTC
2017-02-20 00:00:00,45.0,44.2,30.18,SE,142,0.0,0.0,97,0.00,,---,0.00,VWS V15.00,2017-02-20 05:00:00,
2017-02-20 00:02:00,45.0,44.2,30.18,SE,142,0.0,0.0,97,0.00,,---,0.00,VWS V15.00,2017-02-20 05:02:00,
2017-02-20 00:10:00,44.2,43.4,30.18,SE,142,0.0,0.0,97,0.00,,---,0.00,VWS V15.00,2017-02-20 05:10:00,
2017-02-20 00:11:00,44.2,43.4,30.18,SE,142,0.0,0.0,97,0.00,,---,0.00,VWS V15.00,2017-02-20 05:11:00,
2017-02-20 00:20:00,43.1,42.3,30.18,SE,142,0.0,0.0,97,0.00,,---,0.00,VWS V15.00,2017-02-20 05:20:00,
2017-02-20 00:21:00,43.1,42.3,30.18,SE,142,0.0,0.0,97,0.00,,---,0.00,VWS V15.00,2017-02-20 05:21:00,
2017-02-20 00:30:00,43.7,43.2,30.18,SE,143,0.0,0.0,98,0.00,,---,0.00,VWS V15.00,2017-02-20 05:30:00,
2017-02-20 00:31:00,43.7,43.2,30.18,SE,143,0.0,0.0,98,0.00,,---,0.00,VWS V15.00,2017-02-20 05:31:00,
2017-02-20 00:40:00,43.5,43.0,30.18,SE,142,0.0,0.0,98,0.00,,---,0.00,VWS V15.00,2017-02-20 05:40:00,
2017-02-20 00:41:00,43.5,43.0,30.18,SE,142,0.0,0.0,98,0.00,,---,0.00,VWS V15.00,2017-02-20 05:41:00,
2017-02-20 00:50:00,43.9,43.4,30.18,SE,142,0.0,0.0,98,0.00,,---,0.00,VWS V15.00,2017-02-20 05:50:00,
2017-02-20 00:51:00,43.9,43.4,30.18,SE,142,0.0,0.0,98,0.00,,---,0.00,VWS V15.00,2017-02-20 05:51:00,
2017-02-20 01:00:00,42.9,42.4,30.19,SE,142,0.0,0.0,98,0.00,,---,0.00,VWS V15.00,2017-02-20 06:00:00,
2017-02-20 01:01:00,42.9,42.4,30.19,SE,142,0.0,0.0,98,0.00,,---,0.00,VWS V15.00,2017-02-20 06:01:00,
2017-02-20 01:10:00,42.9,42.4,30.18,SE,143,0.0,0.0,98,0.00,,---,0.00,VWS V15.00,2017-02-20 06:10:00,
2017-02-20 01:11:00,42.9,42.4,30.18,SE,143,0.0,0.0,98,0.00,,---,0.00,VWS V15.00,2017-02-20 06:11:00,
2017-02-20 01:20:00,41.9,41.4,30.18,SE,143,0.0,0.0,98,0.00,,---,0.00,VWS V15.00,2017-02-20 06:20:00,
2017-02-20 01:21:00,41.9,41.4,30.18,SE,143,0.0,0.0,98,0.00,,---,0.00,VWS V15.00,2017-02-20 06:21:00,
2017-02-20 01:30:00,41.0,40.5,30.19,SE,142,0.0,0.0,98,0.00,,---,0.00,VWS V15.00,2017-02-20 06:30:00,
2017-02-20 01:31:00,41.0,40.5,30.19,SE,142,0.0,0.0,98,0.00,,---,0.00,VWS V15.00,2017-02-20 06:31:00,
2017-02-20 01:40:00,41.2,40.7,30.19,SE,142,0.0,0.0,98,0.00,,---,0.00,VWS V15.00,2017-02-20 06:40:00,
2017-02-20 01:41:00,41.2,40.7,30.19,SE,142,0.0,0.0,98,0.00,,---,0.00,VWS V15.00,2017-02-20 06:41:00,
2017-02-20 01:50:00,41.1,40.6,30.18,SE,142,0.0,0.0,98,0.00,,---,0.00,VWS V15.00,2017-02-20 06:50:00,
2017-02-20 01:51:00,41.1,40.6,30.18,SE,142,0.0,0.0,98,0.00,,---,0.00,VWS V15.00,2017-02-20 06:51:00,
2017-02-20 02:00:00,40.8,40.3,30.18,SE,142,0.0,0.0,98,0.00,,---,0.00,VWS V15.00,2017-02-20 07:00:00,
2017-02-20 02:01:00,40.8,40.3,30.18,SE,142,0.0,0.0,98,0.00,,---,0.00,VWS V15.00,2017-02-20 07:01:00,
2017-02-20 02:10:00,41.1,40.8,30.18,SE,142,0.0,0.0,99,0.00,,---,0.00,VWS V15.00,2017-02-20 07:10:00,
2017-02-20 02:11:00,41.1,40.8,30.18,SE,142,0.0,0.0,99,0.00,,---,0.00,VWS V15.00,2017-02-20 07:11:00,
2017-02-20 02:20:00,40.6,40.1,30.18,SE,142,0.0,0.0,98,0.00,,---,0.00,VWS V15.00,2017-02-20 07:20:00,
2017-02-20 02:21:00,40.6,40.1,30.18,SE,142,0.0,0.0,98,0.00,,---,0.00,VWS V15.00,2017-02-20 07:21:00,
2017-02-20 02:30:00,40.7,40.4,30.18,SE,142,0.0,0.0,99,0.00,,---,0.00,VWS V15.00,2017-02-20 07:30:00,
2017-02-20 02:31:00,40.7,40.4,30.18,SE,142,0.0,0.0,99,0.00,,---,0.00,VWS V15.00,2017-02-20 07:31:00,
2017-02-20 02:40:00,40.7,40.4,30.19,SE,142,0.0,0.0,99,0.00,,---,0.00,VWS V15.00,2017-02-20 07:40:00,
2017-02-20 02:41:00,40.7,40.4,30.19,SE,142,0.0,0.0,99,0.00,,---,0.00,VWS V15.00,2017-02-20 07:41:00,
2017-02-20 02:50:00,39.7,39.2,30.18,SE,142,0.0,0.0,98,0.00,,---,0.00,VWS V15.00,2017-02-20 07:50:00,
2017-02-20 02:51:00,39.7,39.2,30.18,SE,142,0.0,0.0,98,0.00,,---,0.00,VWS V15.00,2017-02-20 07:51:00,
2017-02-20 03:02:00,39.3,39.0,30.18,SE,143,0.0,0.0,99,0.00,,---,0.00,VWS V15.00,2017-02-20 08:02:00,
2017-02-20 03:11:00,39.3,39.0,30.18,SE,143,0.0,0.0,99,0.00,,---,0.00,VWS V15.00,2017-02-20 08:11:00,
2017-02-20 03:21:00,39.7,39.4,30.18,SE,143,0.0,0.0,99,0.00,,---,0.00,VWS V15.00,2017-02-20 08:21:00,
2017-02-20 03:31:00,39.6,39.3,30.18,SE,142,0.0,0.0,99,0.00,,---,0.00,VWS V15.00,2017-02-20 08:31:00,
2017-02-20 03:41:00,39.8,39.5,30.18,SE,143,0.0,0.0,99,0.00,,---,0.00,VWS V15.00,2017-02-20 08:41:00,
2017-02-20 03:51:00,39.5,39.2,30.18,SE,142,0.0,0.0,99,0.00,,---,0.00,VWS V15.00,2017-02-20 08:51:00,
2017-02-20 04:01:00,39.5,39.2,30.19,SE,143,0.0,0.0,99,0.00,,---,0.00,VWS V15.00,2017-02-20 09:01:00,
2017-02-20 04:11:00,39.8,39.5,30.19,SE,143,0.0,0.0,99,0.00,,---,0.00,VWS V15.00,2017-02-20 09:11:00,
2017-02-20 04:21:00,39.5,39.2,30.20,SE,142,0.0,0.0,99,0.00,,---,0.00,VWS V15.00,2017-02-20 09:21:00,
2017-02-20 04:31:00,39.9,39.6,30.20,SE,141,0.0,0.0,99,0.00,,---,0.00,VWS V15.00,2017-02-20 09:31:00,
2017-02-20 04:41:00,40.6,40.3,30.20,SE,141,0.0,0.0,99,0.00,,---,0.00,VWS V15.00,2017-02-20 09:41:00,
2017-02-20 04:51:00,40.4,40.1,30.20,SE,141,0.0,0.0,99,0.00,,---,0.00,VWS V15.00,2017-02-20 09:51:00,
2017-02-20 05:01:00,40.7,40.4,30.20,SE,141,0.0,0.0,99,0.00,,---,0.00,VWS V15.00,2017-02-20 10:01:00,
2017-02-20 05:11:00,41.1,40.8,30.21,SE,124,0.0,0.0,99,0.00,,---,0.00,VWS V15.00,2017-02-20 10:11:00,
2017-02-20 05:21:00,41.3,41.3,30.22,ESE,122,0.0,0.0,100,0.00,,---,0.00,VWS V15.00,2017-02-20 10:21:00,
2017-02-20 05:31:00,41.4,41.4,30.22,East,101,0.0,0.0,100,0.00,,---,0.00,VWS V15.00,2017-02-20 10:31:00,
2017-02-20 05:41:00,41.4,41.4,30.23,ESE,102,0.0,0.0,100,0.00,,---,0.00,VWS V15.00,2017-02-20 10:41:00,
2017-02-20 05:51:00,41.4,41.4,30.23,ESE,102,0.0,0.0,100,0.00,,---,0.00,VWS V15.00,2017-02-20 10:51:00,
2017-02-20 06:01:00,41.2,41.2,30.23,ESE,110,0.0,0.0,100,0.00,,---,0.00,VWS V15.00,2017-02-20 11:01:00,
2017-02-20 06:11:00,41.0,41.0,30.23,SE,130,0.0,0.0,100,0.00,,---,0.00,VWS V15.00,2017-02-20 11:11:00,